Time;durP1;ratioP1;P1;durP2;ratioP2;P2;SDS_P1;SDS_P2;PMS_P1;PMS_P2;Temp;Humidity;BMP_temperature;BMP_pressure;BME280_temperature;BME280_humidity;BME280_pressure;Samples;Min_cycle;Max_cycle;Signal;HPM_P1;HPM_P2
2022/03/02 00:00:29;;;;;;;28.83;26.52;;;;;;;;;;4994769;28;20191;-89
2022/03/02 00:02:58;;;;;;;28.38;26.33;;;;;;;;;;4995554;28;20202;-90
2022/03/02 00:05:27;;;;;;;29.42;27.02;;;;;;;;;;4995377;28;20195;-90
2022/03/02 00:07:54;;;;;;;29.02;26.88;;;;;;;;;;4995203;28;20249;-90
2022/03/02 00:10:22;;;;;;;26.85;24.92;;;;;;;;;;4994833;28;20194;-90
2022/03/02 00:12:49;;;;;;;28.38;26.27;;;;;;;;;;4977605;28;20256;-89
2022/03/02 00:15:17;;;;;;;28.98;26.80;;;;;;;;;;4994411;28;20218;-90
2022/03/02 00:17:44;;;;;;;28.88;26.88;;;;;;;;;;4994742;28;20187;-89
2022/03/02 00:20:13;;;;;;;29.77;27.30;;;;;;;;;;4994733;28;20233;-90
2022/03/02 00:22:41;;;;;;;29.58;27.35;;;;;;;;;;4994886;28;20257;-90
2022/03/02 00:25:09;;;;;;;31.52;29.02;;;;;;;;;;4977440;28;20211;-89
2022/03/02 00:27:36;;;;;;;28.88;26.73;;;;;;;;;;4994784;28;20253;-90
2022/03/02 00:30:06;;;;;;;30.70;28.40;;;;;;;;;;4994662;28;20561;-89
2022/03/02 00:32:34;;;;;;;28.85;26.65;;;;;;;;;;4997442;28;20231;-90
2022/03/02 00:35:01;;;;;;;28.35;26.33;;;;;;;;;;4981644;28;20222;-89
2022/03/02 00:37:30;;;;;;;28.27;26.00;;;;;;;;;;4998473;28;20203;-89
2022/03/02 00:39:58;;;;;;;28.80;26.73;;;;;;;;;;4998525;28;20581;-90
2022/03/02 00:42:25;;;;;;;29.63;27.38;;;;;;;;;;4965245;28;20199;-90
2022/03/02 00:44:53;;;;;;;28.25;26.35;;;;;;;;;;4980503;28;20261;-90
2022/03/02 00:47:20;;;;;;;28.95;26.52;;;;;;;;;;4998237;28;20257;-90
2022/03/02 00:49:48;;;;;;;31.17;28.80;;;;;;;;;;4998304;28;20202;-89
2022/03/02 00:52:16;;;;;;;30.65;28.42;;;;;;;;;;4998311;28;20198;-90
2022/03/02 00:54:45;;;;;;;31.40;28.85;;;;;;;;;;4998118;28;20625;-89
2022/03/02 00:57:12;;;;;;;32.67;29.98;;;;;;;;;;4997937;28;20202;-90
2022/03/02 00:59:40;;;;;;;31.42;28.42;;;;;;;;;;4997989;28;20254;-89
2022/03/02 01:02:07;;;;;;;31.60;28.88;;;;;;;;;;4997912;28;20637;-90
2022/03/02 01:04:34;;;;;;;31.27;28.83;;;;;;;;;;4997606;28;20195;-90
2022/03/02 01:07:02;;;;;;;32.90;30.15;;;;;;;;;;4997676;28;20241;-89
2022/03/02 01:09:29;;;;;;;32.28;29.70;;;;;;;;;;4980017;28;20206;-89
2022/03/02 01:11:59;;;;;;;31.08;28.38;;;;;;;;;;4997941;28;20186;-90
2022/03/02 01:14:26;;;;;;;29.67;27.25;;;;;;;;;;4997662;28;20226;-90
2022/03/02 01:16:54;;;;;;;29.70;27.50;;;;;;;;;;4997338;28;20218;-89
2022/03/02 01:19:21;;;;;;;29.50;27.30;;;;;;;;;;4997937;28;20195;-90
2022/03/02 01:21:49;;;;;;;29.25;26.95;;;;;;;;;;4997805;28;20195;-89
2022/03/02 01:24:16;;;;;;;29.13;27.02;;;;;;;;;;4997658;28;20199;-90
2022/03/02 01:26:46;;;;;;;29.58;27.38;;;;;;;;;;4997525;28;20198;-89
2022/03/02 01:29:15;;;;;;;28.08;26.00;;;;;;;;;;4997608;28;20278;-89
2022/03/02 01:31:42;;;;;;;29.73;27.55;;;;;;;;;;4996889;28;20569;-89
2022/03/02 01:34:10;;;;;;;28.40;26.27;;;;;;;;;;4997406;28;20191;-89
2022/03/02 01:36:37;;;;;;;30.13;27.80;;;;;;;;;;4997379;28;20226;-89
2022/03/02 01:39:05;;;;;;;28.10;25.92;;;;;;;;;;4997365;28;20212;-89
2022/03/02 01:41:32;;;;;;;27.42;25.60;;;;;;;;;;4980114;28;20195;-89
2022/03/02 01:43:59;;;;;;;26.98;24.88;;;;;;;;;;4997404;28;20199;-89
2022/03/02 01:46:30;;;;;;;28.17;26.02;;;;;;;;;;4996685;28;20241;-90
2022/03/02 01:48:57;;;;;;;27.08;25.17;;;;;;;;;;4997133;28;20274;-89
2022/03/02 01:51:25;;;;;;;28.38;26.25;;;;;;;;;;4997310;28;20199;-89
2022/03/02 01:53:53;;;;;;;28.45;26.10;;;;;;;;;;4997150;28;20230;-89
2022/03/02 01:56:20;;;;;;;26.35;24.45;;;;;;;;;;4996783;28;20294;-90
2022/03/02 01:58:48;;;;;;;28.00;26.05;;;;;;;;;;4996946;28;20198;-90
2022/03/02 02:01:16;;;;;;;28.27;26.27;;;;;;;;;;4996835;28;20195;-90
2022/03/02 02:03:45;;;;;;;28.48;26.27;;;;;;;;;;4996662;28;20232;-89
2022/03/02 02:06:13;;;;;;;27.92;26.13;;;;;;;;;;4996939;28;20552;-89
2022/03/02 02:08:41;;;;;;;26.75;24.95;;;;;;;;;;4979282;28;20241;-90
2022/03/02 02:11:10;;;;;;;27.10;25.05;;;;;;;;;;4996778;28;20187;-89
2022/03/02 02:13:37;;;;;;;27.65;25.85;;;;;;;;;;4996777;28;20191;-90
2022/03/02 02:16:06;;;;;;;27.85;25.85;;;;;;;;;;4996162;28;20230;-90
2022/03/02 02:18:34;;;;;;;27.25;25.25;;;;;;;;;;4996466;28;20195;-90
2022/03/02 02:21:04;;;;;;;27.48;25.45;;;;;;;;;;4996553;28;20191;-90
2022/03/02 02:23:31;;;;;;;27.63;25.83;;;;;;;;;;4996395;28;20187;-90
2022/03/02 02:25:59;;;;;;;27.05;25.17;;;;;;;;;;4996279;28;20675;-90
2022/03/02 02:28:27;;;;;;;27.02;25.17;;;;;;;;;;4996159;28;20253;-90
2022/03/02 02:30:55;;;;;;;27.08;24.98;;;;;;;;;;4996446;28;20208;-90
2022/03/02 02:33:23;;;;;;;27.48;25.67;;;;;;;;;;4996605;28;20632;-90
2022/03/02 02:35:51;;;;;;;26.75;24.95;;;;;;;;;;4996248;28;20688;-90
2022/03/02 02:38:21;;;;;;;27.35;25.55;;;;;;;;;;4996084;28;20273;-89
2022/03/02 02:40:49;;;;;;;28.38;26.42;;;;;;;;;;4995941;28;20191;-90
2022/03/02 02:43:16;;;;;;;27.38;25.40;;;;;;;;;;4996135;28;20202;-90
2022/03/02 02:45:44;;;;;;;27.27;25.48;;;;;;;;;;4995646;28;20727;-90
2022/03/02 02:48:12;;;;;;;26.40;24.60;;;;;;;;;;4995891;28;20249;-89
2022/03/02 02:50:40;;;;;;;25.92;24.23;;;;;;;;;;4995961;28;20191;-90
2022/03/02 02:53:08;;;;;;;27.58;25.60;;;;;;;;;;4995589;28;20191;-90
2022/03/02 02:55:37;;;;;;;26.70;25.00;;;;;;;;;;4995986;28;20584;-89
2022/03/02 02:58:05;;;;;;;27.77;25.83;;;;;;;;;;4995863;28;20195;-89
2022/03/02 03:00:34;;;;;;;27.77;25.77;;;;;;;;;;4995888;28;20605;-89
2022/03/02 03:03:03;;;;;;;26.75;24.92;;;;;;;;;;4995760;28;20648;-89
2022/03/02 03:05:31;;;;;;;27.05;25.08;;;;;;;;;;4978900;28;20199;-89
2022/03/02 03:08:00;;;;;;;27.42;25.50;;;;;;;;;;4995681;28;20191;-89
2022/03/02 03:10:28;;;;;;;26.23;24.50;;;;;;;;;;4995379;28;20195;-89
2022/03/02 03:12:57;;;;;;;27.95;25.95;;;;;;;;;;4995613;28;20198;-89
2022/03/02 03:15:25;;;;;;;25.98;24.38;;;;;;;;;;4995222;28;20538;-89
2022/03/02 03:17:53;;;;;;;25.92;24.10;;;;;;;;;;4995657;28;20195;-88
2022/03/02 03:20:21;;;;;;;26.90;25.20;;;;;;;;;;4995679;28;20198;-89
2022/03/02 03:22:49;;;;;;;27.85;25.85;;;;;;;;;;4996095;28;20187;-89
2022/03/02 03:25:16;;;;;;;26.83;24.83;;;;;;;;;;4995697;28;20198;-90
2022/03/02 03:27:44;;;;;;;25.63;23.73;;;;;;;;;;4995113;28;20187;-89
2022/03/02 03:30:14;;;;;;;26.83;25.05;;;;;;;;;;4977913;28;20265;-89
2022/03/02 03:32:42;;;;;;;26.73;24.92;;;;;;;;;;4994986;28;20226;-89
2022/03/02 03:35:10;;;;;;;25.40;23.73;;;;;;;;;;4995006;28;20580;-89
2022/03/02 03:37:38;;;;;;;26.85;25.00;;;;;;;;;;4995181;28;20286;-89
2022/03/02 03:40:06;;;;;;;26.70;24.88;;;;;;;;;;4995203;28;20195;-89
2022/03/02 03:42:33;;;;;;;27.23;25.10;;;;;;;;;;4995027;28;20241;-89
2022/03/02 03:45:01;;;;;;;27.92;25.85;;;;;;;;;;4995167;28;20242;-89
2022/03/02 03:47:32;;;;;;;25.60;23.90;;;;;;;;;;4994631;28;20669;-89
2022/03/02 03:50:00;;;;;;;26.15;24.25;;;;;;;;;;4994798;28;20249;-90
2022/03/02 03:52:27;;;;;;;28.52;26.58;;;;;;;;;;4994833;28;20191;-90
2022/03/02 03:54:54;;;;;;;26.00;24.35;;;;;;;;;;4994981;28;20207;-89
2022/03/02 03:57:22;;;;;;;26.58;24.92;;;;;;;;;;4994743;28;20224;-89
2022/03/02 03:59:50;;;;;;;26.30;24.45;;;;;;;;;;4994828;28;20607;-89
2022/03/02 04:02:17;;;;;;;27.98;25.67;;;;;;;;;;4995196;28;20297;-90
2022/03/02 04:04:46;;;;;;;26.45;24.75;;;;;;;;;;4994908;28;20190;-90
2022/03/02 04:07:13;;;;;;;27.27;25.27;;;;;;;;;;4998484;28;20253;-89
2022/03/02 04:09:41;;;;;;;27.73;25.83;;;;;;;;;;4999311;28;20286;-89
2022/03/02 04:12:09;;;;;;;27.67;25.92;;;;;;;;;;4999087;28;20195;-90
2022/03/02 04:14:36;;;;;;;27.13;25.13;;;;;;;;;;4998401;28;20636;-89
2022/03/02 04:17:04;;;;;;;28.38;26.40;;;;;;;;;;4998722;28;20225;-89
2022/03/02 04:19:32;;;;;;;28.05;26.25;;;;;;;;;;4998615;28;20199;-89
2022/03/02 04:22:01;;;;;;;28.00;26.10;;;;;;;;;;4998949;28;20191;-90
2022/03/02 04:24:28;;;;;;;27.92;25.98;;;;;;;;;;4998703;28;20689;-89
2022/03/02 04:26:55;;;;;;;28.25;25.95;;;;;;;;;;4998723;28;20195;-89
2022/03/02 04:29:23;;;;;;;30.13;27.73;;;;;;;;;;4998404;28;20211;-89
2022/03/02 04:31:50;;;;;;;28.92;26.85;;;;;;;;;;4981027;28;20227;-90
2022/03/02 04:34:17;;;;;;;27.00;25.17;;;;;;;;;;4998634;28;20195;-90
2022/03/02 04:36:45;;;;;;;26.38;24.60;;;;;;;;;;4998611;28;20221;-89
2022/03/02 04:39:13;;;;;;;26.90;25.10;;;;;;;;;;4998120;28;20637;-89
2022/03/02 04:41:41;;;;;;;28.40;26.20;;;;;;;;;;4998541;28;20195;-89
2022/03/02 04:44:09;;;;;;;27.60;25.80;;;;;;;;;;4980768;28;20675;-89
2022/03/02 04:46:36;;;;;;;28.33;26.02;;;;;;;;;;4998056;28;20270;-89
2022/03/02 04:49:10;;;;;;;27.20;25.30;;;;;;;;;;4997982;28;20210;-89
2022/03/02 04:51:38;;;;;;;29.08;26.65;;;;;;;;;;4998143;28;20195;-89
2022/03/02 04:54:06;;;;;;;28.45;26.52;;;;;;;;;;4998036;28;20278;-89
2022/03/02 04:56:35;;;;;;;29.27;27.20;;;;;;;;;;4998123;28;20245;-89
2022/03/02 04:59:03;;;;;;;31.50;28.90;;;;;;;;;;4998212;28;20195;-89
2022/03/02 05:01:31;;;;;;;30.65;28.45;;;;;;;;;;4997826;28;20195;-89
2022/03/02 05:03:58;;;;;;;31.60;29.30;;;;;;;;;;4981190;28;20222;-89
2022/03/02 05:06:26;;;;;;;29.63;27.27;;;;;;;;;;4998006;28;20545;-90
2022/03/02 05:08:53;;;;;;;28.52;26.48;;;;;;;;;;4997623;28;20636;-89
2022/03/02 05:11:20;;;;;;;31.33;29.05;;;;;;;;;;4997654;28;20199;-89
2022/03/02 05:13:49;;;;;;;32.33;29.65;;;;;;;;;;4997330;28;20213;-89
2022/03/02 05:16:16;;;;;;;30.30;28.15;;;;;;;;;;4997348;28;20191;-89
2022/03/02 05:18:44;;;;;;;31.80;29.40;;;;;;;;;;4997479;28;20193;-89
2022/03/02 05:21:13;;;;;;;31.75;29.35;;;;;;;;;;4997421;28;20636;-89
2022/03/02 05:23:40;;;;;;;32.05;29.25;;;;;;;;;;4997709;28;20226;-89
2022/03/02 05:26:08;;;;;;;31.77;29.33;;;;;;;;;;4980641;28;20194;-89
2022/03/02 05:28:36;;;;;;;30.42;28.13;;;;;;;;;;4980049;28;20261;-89
2022/03/02 05:31:05;;;;;;;32.22;29.38;;;;;;;;;;4997611;28;20569;-89
2022/03/02 05:33:32;;;;;;;31.88;29.30;;;;;;;;;;4997370;28;20637;-89
2022/03/02 05:36:00;;;;;;;33.15;30.55;;;;;;;;;;4997158;28;20194;-91
2022/03/02 05:38:27;;;;;;;31.77;29.30;;;;;;;;;;4997348;28;20234;-89
2022/03/02 05:40:55;;;;;;;32.55;29.95;;;;;;;;;;4997083;28;20235;-89
2022/03/02 05:43:22;;;;;;;33.10;30.65;;;;;;;;;;4997318;28;20199;-91
2022/03/02 05:45:49;;;;;;;34.22;31.20;;;;;;;;;;4996792;28;20635;-90
2022/03/02 05:48:19;;;;;;;34.25;31.48;;;;;;;;;;4996971;28;20629;-89
2022/03/02 05:50:46;;;;;;;33.05;30.63;;;;;;;;;;4996958;28;20257;-88
2022/03/02 05:53:13;;;;;;;35.00;32.20;;;;;;;;;;4997036;28;20190;-88
2022/03/02 05:55:41;;;;;;;33.80;30.77;;;;;;;;;;4997211;28;20191;-89
2022/03/02 05:58:08;;;;;;;34.20;31.40;;;;;;;;;;4996534;28;20214;-88
2022/03/02 06:00:36;;;;;;;35.38;32.67;;;;;;;;;;4996820;28;20659;-89
2022/03/02 06:03:04;;;;;;;32.22;29.83;;;;;;;;;;4980375;28;20640;-88
2022/03/02 06:05:34;;;;;;;34.22;31.50;;;;;;;;;;4996551;28;20253;-89
2022/03/02 06:08:01;;;;;;;33.78;30.90;;;;;;;;;;4996816;28;20199;-89
2022/03/02 06:10:28;;;;;;;34.50;31.67;;;;;;;;;;4996873;28;20203;-89
2022/03/02 06:12:56;;;;;;;34.75;31.75;;;;;;;;;;4979320;28;20604;-89
2022/03/02 06:15:24;;;;;;;33.53;31.08;;;;;;;;;;4996602;28;20241;-88
2022/03/02 06:17:51;;;;;;;33.75;31.08;;;;;;;;;;4996445;28;20229;-91
2022/03/02 06:20:19;;;;;;;34.92;31.92;;;;;;;;;;4996441;28;20633;-93
2022/03/02 06:22:48;;;;;;;34.33;31.30;;;;;;;;;;4996405;28;20191;-92
2022/03/02 06:25:16;;;;;;;34.30;31.60;;;;;;;;;;4996174;28;20203;-88
2022/03/02 06:27:43;;;;;;;33.42;30.80;;;;;;;;;;4996265;28;20191;-88
2022/03/02 06:30:11;;;;;;;34.80;31.80;;;;;;;;;;4995872;28;20195;-88
2022/03/02 06:32:39;;;;;;;35.95;33.00;;;;;;;;;;4996360;28;20223;-93
2022/03/02 06:35:07;;;;;;;34.42;31.40;;;;;;;;;;4996293;28;20265;-93
2022/03/02 06:37:35;;;;;;;32.80;30.25;;;;;;;;;;4978537;28;20230;-93
2022/03/02 06:40:04;;;;;;;34.72;31.90;;;;;;;;;;4996026;28;20209;-93
2022/03/02 06:42:36;;;;;;;35.45;32.50;;;;;;;;;;4996212;28;20249;-93
2022/03/02 06:45:09;;;;;;;34.55;31.55;;;;;;;;;;4995885;28;20231;-93
2022/03/02 06:47:38;;;;;;;34.67;32.05;;;;;;;;;;4996240;28;20191;-92
2022/03/02 06:50:10;;;;;;;33.50;30.70;;;;;;;;;;4995967;28;20190;-93
2022/03/02 06:52:39;;;;;;;33.92;31.15;;;;;;;;;;4978441;28;20206;-91
2022/03/02 06:55:10;;;;;;;34.00;31.17;;;;;;;;;;4995690;28;20285;-90
2022/03/02 06:57:38;;;;;;;32.40;29.67;;;;;;;;;;4996102;28;20285;-92
2022/03/02 07:00:08;;;;;;;33.92;30.77;;;;;;;;;;4995844;28;20245;-92
2022/03/02 07:02:39;;;;;;;34.10;31.35;;;;;;;;;;4995713;28;20195;-92
2022/03/02 07:05:08;;;;;;;34.20;31.35;;;;;;;;;;4995877;28;20225;-92
2022/03/02 07:07:36;;;;;;;33.30;30.25;;;;;;;;;;4995770;28;20202;-91
2022/03/02 07:10:04;;;;;;;34.33;31.55;;;;;;;;;;4995259;28;20207;-91
2022/03/02 07:12:33;;;;;;;34.47;31.45;;;;;;;;;;4995645;28;20191;-93
2022/03/02 07:15:00;;;;;;;32.28;29.77;;;;;;;;;;4995185;28;20195;-93
2022/03/02 07:17:32;;;;;;;32.60;30.00;;;;;;;;;;4995585;28;20219;-92
2022/03/02 07:20:00;;;;;;;35.30;32.33;;;;;;;;;;4995531;28;20253;-91
2022/03/02 07:22:32;;;;;;;33.50;30.60;;;;;;;;;;4995713;28;20290;-92
2022/03/02 07:25:01;;;;;;;32.70;30.25;;;;;;;;;;4995535;28;20213;-91
2022/03/02 07:27:28;;;;;;;33.10;30.08;;;;;;;;;;4995446;28;20191;-91
2022/03/02 07:29:57;;;;;;;32.83;30.10;;;;;;;;;;4995104;28;20187;-91
2022/03/02 07:32:26;;;;;;;31.95;29.35;;;;;;;;;;4995171;28;20222;-90
2022/03/02 07:34:57;;;;;;;31.98;29.42;;;;;;;;;;4995324;28;20218;-92
2022/03/02 07:37:25;;;;;;;33.45;30.65;;;;;;;;;;4995388;28;20219;-94
2022/03/02 07:39:52;;;;;;;31.42;29.15;;;;;;;;;;4995302;28;20190;-94
2022/03/02 07:42:20;;;;;;;31.48;28.83;;;;;;;;;;4962005;28;20210;-93
2022/03/02 07:44:48;;;;;;;30.77;28.48;;;;;;;;;;4994637;28;20214;-94
2022/03/02 07:47:17;;;;;;;32.22;29.83;;;;;;;;;;4995202;28;20281;-94
2022/03/02 07:49:46;;;;;;;29.17;27.08;;;;;;;;;;4994997;28;20536;-94
2022/03/02 07:52:15;;;;;;;29.67;27.50;;;;;;;;;;4995123;28;20241;-92
2022/03/02 07:54:43;;;;;;;31.17;28.55;;;;;;;;;;4994827;28;20214;-94
2022/03/02 07:57:12;;;;;;;29.05;26.95;;;;;;;;;;4996262;28;20576;-94
2022/03/02 07:59:40;;;;;;;30.30;28.00;;;;;;;;;;4997110;28;20195;-96
2022/03/02 08:02:09;;;;;;;28.20;26.30;;;;;;;;;;4979262;28;20187;-96
2022/03/02 08:04:38;;;;;;;28.67;26.63;;;;;;;;;;4995570;28;20655;-94
2022/03/02 08:07:06;;;;;;;27.95;25.95;;;;;;;;;;4994714;28;20191;-93
2022/03/02 08:09:34;;;;;;;28.35;26.55;;;;;;;;;;4994921;28;20282;-93
2022/03/02 08:12:04;;;;;;;28.73;26.40;;;;;;;;;;4977764;28;20214;-92
2022/03/02 08:14:33;;;;;;;27.98;26.02;;;;;;;;;;4995234;28;20198;-94
2022/03/02 08:17:00;;;;;;;28.63;26.33;;;;;;;;;;4977720;28;20640;-93
2022/03/02 08:19:30;;;;;;;27.73;25.80;;;;;;;;;;4994695;28;20253;-93
2022/03/02 08:22:00;;;;;;;29.33;26.90;;;;;;;;;;4978457;28;20195;-92
2022/03/02 08:24:29;;;;;;;28.92;26.73;;;;;;;;;;4977212;28;20207;-88
2022/03/02 08:26:58;;;;;;;27.45;25.35;;;;;;;;;;4994736;28;20618;-88
2022/03/02 08:29:29;;;;;;;27.00;24.90;;;;;;;;;;4994656;28;20210;-90
2022/03/02 08:31:59;;;;;;;27.38;25.48;;;;;;;;;;4994780;28;20626;-90
2022/03/02 08:34:27;;;;;;;27.77;25.88;;;;;;;;;;4994791;28;20649;-89
2022/03/02 08:36:54;;;;;;;29.63;27.52;;;;;;;;;;4994846;28;20209;-89
2022/03/02 08:39:24;;;;;;;28.08;26.10;;;;;;;;;;4994417;28;20227;-90
2022/03/02 08:41:51;;;;;;;28.67;26.70;;;;;;;;;;4977316;28;20211;-84
2022/03/02 08:44:19;;;;;;;28.67;26.60;;;;;;;;;;4994840;28;20194;-84
2022/03/02 08:46:47;;;;;;;27.60;25.67;;;;;;;;;;4976353;28;20332;-83
2022/03/02 08:49:15;;;;;;;26.70;24.75;;;;;;;;;;4993464;28;20198;-87
2022/03/02 08:51:42;;;;;;;26.75;24.88;;;;;;;;;;4977218;28;20191;-87
2022/03/02 08:54:13;;;;;;;27.95;25.85;;;;;;;;;;4997068;28;20194;-86
2022/03/02 08:56:42;;;;;;;28.98;26.77;;;;;;;;;;4997307;28;20233;-85
2022/03/02 08:59:10;;;;;;;27.90;26.00;;;;;;;;;;4997311;28;20234;-86
2022/03/02 09:01:40;;;;;;;27.67;25.77;;;;;;;;;;4997657;28;20195;-87
2022/03/02 09:04:08;;;;;;;29.35;27.10;;;;;;;;;;4980215;28;20206;-85
2022/03/02 09:06:36;;;;;;;27.98;25.98;;;;;;;;;;4997906;28;20556;-85
2022/03/02 09:09:06;;;;;;;27.80;26.00;;;;;;;;;;4997340;28;20278;-84
2022/03/02 09:11:34;;;;;;;28.20;26.05;;;;;;;;;;4980456;28;20633;-88
2022/03/02 09:14:04;;;;;;;27.15;25.35;;;;;;;;;;4981008;28;20226;-92
2022/03/02 09:16:32;;;;;;;27.77;25.83;;;;;;;;;;4979987;28;20281;-94
2022/03/02 09:19:02;;;;;;;27.02;25.02;;;;;;;;;;4997482;28;20238;-93
2022/03/02 09:21:31;;;;;;;26.05;24.25;;;;;;;;;;4997452;28;20191;-92
2022/03/02 09:23:59;;;;;;;26.02;24.23;;;;;;;;;;4998119;28;20194;-93
2022/03/02 09:26:27;;;;;;;27.35;25.35;;;;;;;;;;4980659;28;20594;-92
2022/03/02 09:28:55;;;;;;;26.95;24.95;;;;;;;;;;4997351;28;20262;-95
2022/03/02 09:31:26;;;;;;;28.20;26.17;;;;;;;;;;4997914;28;20230;-94
2022/03/02 09:33:56;;;;;;;26.90;25.15;;;;;;;;;;4997208;28;20211;-94
2022/03/02 09:36:24;;;;;;;26.88;24.90;;;;;;;;;;4996921;28;20211;-95
2022/03/02 09:38:52;;;;;;;26.30;24.23;;;;;;;;;;4980938;28;20230;-94
2022/03/02 09:41:24;;;;;;;27.67;25.23;;;;;;;;;;4997555;28;20198;-93
2022/03/02 09:43:56;;;;;;;27.08;24.98;;;;;;;;;;4997103;28;20203;-93
2022/03/02 09:46:29;;;;;;;27.25;25.25;;;;;;;;;;4997013;28;20237;-93
2022/03/02 09:48:59;;;;;;;28.25;26.35;;;;;;;;;;4996674;28;20203;-84
2022/03/02 09:51:28;;;;;;;26.98;25.15;;;;;;;;;;4997031;28;20665;-85
2022/03/02 09:53:55;;;;;;;26.90;24.97;;;;;;;;;;4996838;28;20187;-86
2022/03/02 09:56:23;;;;;;;27.85;25.95;;;;;;;;;;4996692;28;20421;-86
2022/03/02 09:58:52;;;;;;;26.98;25.10;;;;;;;;;;4995922;28;20219;-86
2022/03/02 10:01:23;;;;;;;27.05;25.35;;;;;;;;;;4996330;28;20683;-90
2022/03/02 10:03:53;;;;;;;27.63;25.77;;;;;;;;;;4996074;28;20194;-90
2022/03/02 10:06:21;;;;;;;27.08;25.17;;;;;;;;;;4996407;28;20199;-90
2022/03/02 10:08:50;;;;;;;26.95;25.20;;;;;;;;;;4995824;28;20187;-90
2022/03/02 10:11:20;;;;;;;27.90;26.00;;;;;;;;;;4995849;28;20649;-90
2022/03/02 10:13:48;;;;;;;27.40;25.50;;;;;;;;;;4996137;28;20195;-90
2022/03/02 10:16:21;;;;;;;27.65;25.80;;;;;;;;;;4996568;28;20273;-90
2022/03/02 10:18:51;;;;;;;27.33;25.52;;;;;;;;;;4979137;28;20240;-90
2022/03/02 10:21:21;;;;;;;27.27;25.45;;;;;;;;;;4979155;28;20198;-90
2022/03/02 10:23:49;;;;;;;28.42;26.52;;;;;;;;;;4996522;28;20278;-86
2022/03/02 10:26:20;;;;;;;27.15;25.35;;;;;;;;;;4996273;28;20195;-87
2022/03/02 10:28:56;;;;;;;27.95;25.92;;;;;;;;;;4996574;28;20199;-87
2022/03/02 10:31:42;;;;;;;28.55;26.73;;;;;;;;;;4979733;28;20222;-87
2022/03/02 10:34:15;;;;;;;28.35;26.45;;;;;;;;;;4996220;28;20203;-87
2022/03/02 10:36:46;;;;;;;26.23;24.50;;;;;;;;;;4996438;28;20186;-87
2022/03/02 10:39:18;;;;;;;27.42;25.45;;;;;;;;;;4995931;28;20227;-87
2022/03/02 10:41:47;;;;;;;28.30;26.30;;;;;;;;;;4996289;28;20190;-87
2022/03/02 10:44:18;;;;;;;28.57;26.37;;;;;;;;;;4996002;28;20420;-86
2022/03/02 10:46:47;;;;;;;30.27;27.97;;;;;;;;;;4995716;28;21008;-85
2022/03/02 10:49:19;;;;;;;31.73;29.33;;;;;;;;;;4996212;28;20404;-87
2022/03/02 10:51:48;;;;;;;31.88;29.52;;;;;;;;;;4996034;28;20187;-86
2022/03/02 10:54:18;;;;;;;29.08;26.90;;;;;;;;;;4995958;28;20219;-87
2022/03/02 10:56:46;;;;;;;31.88;28.95;;;;;;;;;;4993901;28;20710;-89
2022/03/02 10:59:16;;;;;;;28.92;26.83;;;;;;;;;;4995474;28;20313;-90
2022/03/02 11:01:45;;;;;;;29.83;27.77;;;;;;;;;;4995048;28;20707;-86
2022/03/02 11:04:14;;;;;;;30.65;28.45;;;;;;;;;;4995876;28;20191;-88
2022/03/02 11:06:42;;;;;;;29.45;27.20;;;;;;;;;;4995571;28;20265;-87
2022/03/02 11:09:11;;;;;;;29.80;27.70;;;;;;;;;;4995551;28;20253;-87
2022/03/02 11:11:38;;;;;;;29.03;27.07;;;;;;;;;;4995648;28;20447;-87
2022/03/02 11:14:06;;;;;;;29.20;27.00;;;;;;;;;;4995332;28;20424;-86
2022/03/02 11:16:33;;;;;;;29.80;27.33;;;;;;;;;;4995102;28;20653;-86
2022/03/02 11:19:10;;;;;;;29.20;26.80;;;;;;;;;;4977896;28;20262;-85
2022/03/02 11:21:39;;;;;;;29.87;27.37;;;;;;;;;;4995448;28;20442;-86
2022/03/02 11:24:08;;;;;;;29.48;27.38;;;;;;;;;;4995251;28;20448;-86
2022/03/02 11:26:39;;;;;;;29.07;27.03;;;;;;;;;;4995224;28;20198;-86
2022/03/02 11:29:10;;;;;;;29.67;27.67;;;;;;;;;;4995177;28;20465;-88
2022/03/02 11:31:41;;;;;;;30.77;28.23;;;;;;;;;;4995183;28;20452;-86
2022/03/02 11:34:12;;;;;;;31.10;28.50;;;;;;;;;;4978049;28;20429;-87
2022/03/02 11:36:40;;;;;;;28.93;26.83;;;;;;;;;;4995268;28;20905;-87
2022/03/02 11:39:09;;;;;;;29.63;27.50;;;;;;;;;;4994893;28;20497;-87
2022/03/02 11:41:39;;;;;;;30.63;28.27;;;;;;;;;;4961729;28;20425;-86
2022/03/02 11:44:25;;;;;;;30.63;28.43;;;;;;;;;;4995101;28;20438;-90
2022/03/02 11:46:53;;;;;;;30.57;28.17;;;;;;;;;;4994525;28;20481;-85
2022/03/02 11:49:20;;;;;;;29.80;27.73;;;;;;;;;;4994833;28;20920;-90
2022/03/02 11:52:04;;;;;;;29.23;26.92;;;;;;;;;;4994797;28;20459;-89
2022/03/02 11:54:40;;;;;;;26.20;24.50;;;;;;;;;;4994803;28;20739;-85
2022/03/02 11:57:09;;;;;;;29.48;27.30;;;;;;;;;;4995077;28;20930;-84
2022/03/02 11:59:38;;;;;;;29.23;27.27;;;;;;;;;;4995060;28;20247;-85
2022/03/02 12:02:13;;;;;;;29.93;27.77;;;;;;;;;;4994612;28;20450;-85
2022/03/02 12:04:40;;;;;;;29.30;27.30;;;;;;;;;;4977486;28;20424;-84
2022/03/02 12:07:09;;;;;;;28.67;26.57;;;;;;;;;;4994439;28;20201;-83
2022/03/02 12:09:37;;;;;;;29.73;26.97;;;;;;;;;;4994797;28;20466;-85
2022/03/02 12:12:11;;;;;;;29.20;27.17;;;;;;;;;;4994618;28;20412;-85
2022/03/02 12:14:46;;;;;;;28.57;26.57;;;;;;;;;;4994875;28;20434;-85
2022/03/02 12:17:14;;;;;;;29.13;26.90;;;;;;;;;;4994516;28;20423;-84
2022/03/02 12:19:42;;;;;;;29.23;27.17;;;;;;;;;;4994598;28;20456;-84
2022/03/02 12:22:10;;;;;;;29.77;27.58;;;;;;;;;;4994326;28;20941;-85
2022/03/02 12:24:38;;;;;;;30.63;28.23;;;;;;;;;;4994397;28;20203;-83
2022/03/02 12:27:06;;;;;;;30.00;28.00;;;;;;;;;;4995597;28;20456;-84
2022/03/02 12:29:35;;;;;;;29.47;27.40;;;;;;;;;;4998653;28;20432;-85
2022/03/02 12:32:07;;;;;;;28.63;26.73;;;;;;;;;;4998906;28;20473;-92
2022/03/02 12:34:35;;;;;;;29.13;27.13;;;;;;;;;;4998241;28;20241;-88
2022/03/02 12:37:03;;;;;;;28.43;26.53;;;;;;;;;;4998203;28;20277;-89
2022/03/02 12:39:31;;;;;;;30.07;27.83;;;;;;;;;;4998874;28;20833;-90
2022/03/02 12:42:02;;;;;;;26.77;25.07;;;;;;;;;;4998501;28;20445;-90
2022/03/02 12:44:33;;;;;;;27.38;25.60;;;;;;;;;;4998393;28;20490;-90
2022/03/02 12:47:03;;;;;;;28.57;26.67;;;;;;;;;;4998538;28;20222;-88
2022/03/02 12:49:31;;;;;;;28.27;26.37;;;;;;;;;;4998617;28;20469;-89
2022/03/02 12:51:59;;;;;;;27.80;25.97;;;;;;;;;;4997997;28;20921;-94
2022/03/02 12:54:27;;;;;;;29.73;27.60;;;;;;;;;;4998233;28;20408;-86
2022/03/02 12:56:54;;;;;;;28.50;26.50;;;;;;;;;;4997790;28;20485;-83
2022/03/02 12:59:22;;;;;;;28.27;26.40;;;;;;;;;;4980268;28;20646;-81
2022/03/02 13:01:49;;;;;;;28.70;26.80;;;;;;;;;;4997860;28;20445;-82
2022/03/02 13:04:20;;;;;;;27.40;25.50;;;;;;;;;;4997689;28;20446;-82
2022/03/02 13:06:51;;;;;;;29.45;27.35;;;;;;;;;;4997751;28;20412;-82
2022/03/02 13:09:20;;;;;;;29.50;27.30;;;;;;;;;;4997771;28;20191;-82
2022/03/02 13:11:47;;;;;;;27.73;25.83;;;;;;;;;;4997656;28;20427;-82
2022/03/02 13:14:29;;;;;;;28.30;26.30;;;;;;;;;;4980579;28;20450;-82
2022/03/02 13:16:57;;;;;;;26.30;24.50;;;;;;;;;;4997577;28;20420;-81
2022/03/02 13:19:28;;;;;;;28.67;26.67;;;;;;;;;;4997173;28;21053;-82
2022/03/02 13:21:59;;;;;;;27.87;25.97;;;;;;;;;;4997341;28;20695;-83
2022/03/02 13:24:26;;;;;;;28.57;26.50;;;;;;;;;;4997573;28;20408;-82
2022/03/02 13:27:10;;;;;;;29.57;27.53;;;;;;;;;;4979664;28;20483;-82
2022/03/02 13:29:54;;;;;;;26.93;25.03;;;;;;;;;;4997205;28;20462;-80
2022/03/02 13:32:22;;;;;;;28.07;25.97;;;;;;;;;;4979414;28;20428;-82
2022/03/02 13:35:07;;;;;;;27.60;25.77;;;;;;;;;;4997050;28;20437;-84
2022/03/02 13:37:53;;;;;;;26.90;25.00;;;;;;;;;;4979409;28;20499;-83
2022/03/02 13:40:47;;;;;;;28.10;26.20;;;;;;;;;;4997181;28;20472;-82
2022/03/02 13:43:37;;;;;;;26.80;24.90;;;;;;;;;;4937127;29;20448;-82
2022/03/02 13:46:18;;;;;;;25.20;23.60;;;;;;;;;;4937001;28;20516;-83
2022/03/02 13:48:49;;;;;;;27.33;25.43;;;;;;;;;;4920714;29;20498;-81
2022/03/02 13:51:18;;;;;;;28.37;26.43;;;;;;;;;;4937313;29;20423;-84
2022/03/02 13:53:46;;;;;;;29.00;27.10;;;;;;;;;;4921629;29;20492;-83
2022/03/02 13:56:15;;;;;;;27.53;25.73;;;;;;;;;;4936572;29;20496;-83
2022/03/02 13:58:43;;;;;;;26.60;25.00;;;;;;;;;;4936886;29;20507;-81
2022/03/02 14:01:12;;;;;;;25.67;24.07;;;;;;;;;;4936890;29;21128;-83
2022/03/02 14:03:43;;;;;;;26.90;25.00;;;;;;;;;;4936844;29;20440;-83
2022/03/02 14:06:11;;;;;;;26.80;25.00;;;;;;;;;;4936889;29;20457;-83
2022/03/02 14:08:50;;;;;;;27.27;25.47;;;;;;;;;;4936705;29;20444;-83
2022/03/02 14:11:34;;;;;;;26.30;24.60;;;;;;;;;;4936340;29;20460;-83
2022/03/02 14:14:02;;;;;;;25.70;24.10;;;;;;;;;;4921039;29;20489;-83
2022/03/02 14:16:29;;;;;;;25.50;24.00;;;;;;;;;;4920803;29;20512;-83
2022/03/02 14:19:04;;;;;;;25.10;23.60;;;;;;;;;;4948755;28;20433;-84
2022/03/02 14:21:31;;;;;;;25.27;23.67;;;;;;;;;;4996234;28;20930;-83
2022/03/02 14:24:09;;;;;;;25.97;24.27;;;;;;;;;;4996483;28;20416;-83
2022/03/02 14:26:37;;;;;;;26.30;24.60;;;;;;;;;;4996302;28;20446;-83